All Lego sets with set number 41000 to 42000

Sort on
Set TitlePriceDifferenceAdded
Water Scooter Fun (41000)€ 5.49- € 0.50 (8%)2012-12-17
Mia's Magic Tricks (41001)€ 9.95- € 0.04 (0%)2012-12-17
Rehearsal Stage (41004)€ 24.95+ € 4.96 (25%)2012-12-17
Stephanie's Soccer Practice (41011)€ 14.95+ € 4.96 (50%)2012-12-17
Sunshine Harvest (41026)€ 19.95- € 4.80 (19%)2013-12-27
Stephanie's New Born Lamb (41029)€ 9.95- € 0.04 (0%)2013-12-27
First Aid Jungle Bike (41032)€ 10.71- € 7.16 (40%)2014-05-31
Turtle's Little Paradise (41041)€ 5.95+ € 1.46 (33%)2013-12-27
Tiger's Beautiful Temple (41042)€ 18.33+ € 13.84 (308%)2013-12-27
Macaw's Fountain (41044)€ 4.95+ € 0.46 (10%)2014-05-14
Brown Bear's River (41046)€ 4.95+ € 0.46 (10%)2014-05-14
Heartlake Shopping Mall (41058)€ 94.95- € 15.11 (14%)2014-05-31
Jasmine's Exotic Palace (41061)€ 23.87- € 3.64 (13%)2014-12-23
Elsa’s Sparkling Ice Castle (41062)€ 32.99- € 15.16 (31%)2014-12-23
Ariel’s Undersea Palace (41063)€ 61.99- € 6.79 (10%)2014-12-23
Rapunzel's Best Day Ever (41065)€ 19.99- € 6.31 (24%)2016-05-26
Anna & Kristoff’s Sleigh Adventure (41066)€ 23.88- € 10.51 (31%)2015-12-04
Belle's Enchanted Castle (41067)€ 39.99- € 25.78 (39%)2016-05-26
Arendelle Castle Celebration (41068)€ 41.35- € 27.43 (40%)2015-12-04
Treasure’s Day at the Pool (41069)€ 5.61- € 4.01 (42%)2015-12-15
Aira's Creative Workshop (41071)€ 11.93- € 1.82 (13%)2015-03-01
Naida's Epic Adventure Ship (41073)€ 23.99- € 10.40 (30%)2015-03-01
The Elves’ Treetop Hideaway (41075)€ 42.99- € 12.03 (22%)2015-03-01
Aira’s Pegasus Sleigh (41077)€ 41.78- € 6.37 (13%)2015-06-01
Heartlake Hair Salon (41093)€ 29.84- € 4.55 (13%)2014-12-25
Heartlake Lighthouse (41094)€ 33.71- € 21.31 (39%)2014-12-25
Emma’s House (41095)€ 59.99- € 22.55 (27%)2014-12-25
Heartlake Hot Air Balloon (41097)€ 21.72- € 12.67 (37%)2014-12-25
Emma’s Tourist Kiosk (41098)€ 8.95- € 4.80 (35%)2015-06-01
Heartlake Skate Park (41099)€ 15.87- € 8.88 (36%)2015-06-01
Heartlake Private Jet (41100)€ 25.99- € 1.52 (6%)2015-06-01
Heartlake Grand Hotel (41101)€ 103.99- € 33.59 (24%)2015-06-01
LEGO® Friends Advent Calendar (41102)€ 23.95+ € 5.01 (26%)2015-09-01
Pop Star Recording Studio (41103)€ 14.36- € 3.51 (20%)2015-06-01
Pop Star Dressing Room (41104)€ 29.84- € 4.55 (13%)2015-06-01
Pop Star Show Stage (41105)€ 37.99- € 10.16 (21%)2015-06-01
Pop Star Tour Bus (41106)€ 40.00- € 28.78 (42%)2015-06-01
Heartlake Food Market (41108)€ 33.71- € 14.44 (30%)2015-06-01
Heartlake Airport (41109)€ 89.95- € 13.23 (13%)2015-06-01
Birthday Party (41110)€ 15.99- € 8.76 (35%)2015-12-15
Party Train (41111)€ 7.99- € 4.38 (35%)2015-12-15
Party Cakes (41112)€ 4.76- € 0.73 (13%)2015-12-15
Party Gift Shop (41113)€ 3.51- € 1.98 (36%)2015-12-15
Party Styling (41114)€ 4.51- € 0.98 (18%)2015-12-15
Emma's Creative Workshop (41115)€ 7.99- € 4.33 (35%)2015-12-19
Olivia's Exploration Car (41116)€ 11.99- € 5.81 (33%)2015-12-19
Pop Star TV Studio (41117)€ 16.66- € 7.99 (32%)2015-12-19
Heartlake Supermarket (41118)€ 26.36- € 14.74 (36%)2015-12-19
Heartlake Cupcake Café (41119)€ 29.98- € 17.97 (37%)2015-12-19
Adventure Camp Archery (41120)€ 7.99- € 4.38 (35%)2015-12-15
Adventure Camp Rafting (41121)€ 21.39- € 13.00 (38%)2015-12-15
Adventure Camp Tree House (41122)€ 55.99- € 26.55 (32%)2015-12-15
Foal's Washing Station (41123)€ 7.09- € 4.74 (40%)2016-05-29
Heartlake Puppy Daycare (41124)€ 20.41- € 12.43 (38%)2016-05-27
Horse Vet Trailer (41125)€ 29.62- € 16.36 (36%)2016-05-27
Heartlake Riding Club (41126)€ 48.95- € 16.74 (25%)2016-05-27
Amusement Park Arcade (41127)€ 12.99- € 4.08 (24%)2016-05-27
Amusement Park Space Ride (41128)€ 14.67- € 8.97 (38%)2016-05-27
Amusement Park Hot Dog Van (41129)€ 20.37- € 12.47 (38%)2016-05-27
Amusement Park Roller Coaster (41130)€ 74.98- € 43.28 (37%)2016-05-27
LEGO® Friends Advent Calendar (41131)€ 16.74- € 6.80 (29%)2016-08-31
Heartlake Party Shop (41132)€ 29.84- € 3.03 (9%)2016-05-29
Amusement Park Bumper Cars (41133)€ 29.96- € 16.07 (35%)2016-05-29
Heartlake Performance School (41134)€ 83.57- € 8.50 (9%)2016-05-29
Livi's Pop Star House (41135)€ 52.95- € 15.83 (23%)2015-12-15
Daisy’s Beauty Salon (41140)€ 6.64- € 5.73 (46%)2015-12-15
Pumpkin’s Royal Carriage (41141)€ 7.43- € 4.94 (40%)2015-12-15
Palace Pets Royal Castle (41142)€ 15.99- € 11.40 (42%)2015-12-19
Best everBerry's Kitchen (41143)€ 5.90--2016-12-01
Petite's Royal Stable (41144)€ 10.62--2016-12-01
Anna's Snow Adventure (41147)€ 23.62--2016-12-01
Best everElsa's Magical Ice Palace (41148)€ 76.78--2016-12-01
Best everMoana's Island Adventure (41149)€ 29.52--2016-12-01
Best everMoana's Ocean Voyage (41150)€ 47.24--2016-12-01
Emily Jones & the Baby Wind Dragon (41171)€ 9.95- € 1.56 (14%)2016-03-01
The Water Dragon Adventure (41172)€ 21.48- € 1.55 (7%)2016-03-01
Elvendale School of Dragons (41173)€ 19.38- € 3.65 (16%)2016-03-01
The Starlight Inn (41174)€ 27.99- € 4.00 (13%)2016-03-01
Fire Dragon's Lava Cave (41175)€ 29.89- € 14.90 (33%)2016-03-01
The Secret Market Place (41176)€ 44.87- € 19.12 (30%)2016-03-01
The Precious Crystal Mine (41177)€ 18.99- € 13.89 (42%)2016-05-26
The Dragon Sanctuary (41178)€ 37.42- € 8.61 (19%)2016-05-26
Queen Dragon's Rescue (41179)€ 52.99- € 25.93 (33%)2016-05-26
Ragana's Magic Shadow Castle (41180)€ 75.80- € 22.86 (23%)2016-05-26
Best everBatgirl™ Batjet Chase (41230)€ 23.62--2016-12-01
Best everHarley Quinn™ to the rescue (41231)€ 29.52--2016-12-01
Best everSuper Hero High School (41232)€ 88.59--2016-12-01
Best everLashina™ Tank (41233)€ 14.17--2016-12-01
Best everBumblebee™ Helicopter (41234)€ 14.17--2016-12-01
Best everWonder Woman™ Dorm (41235)€ 23.62--2016-12-01
Best everPuppy Championship (41300)€ 21.25--2016-12-01
Best everPuppy Parade (41301)€ 15.35--2016-12-01
Best everPuppy Pampering (41302)€ 4.71--2016-12-01
Best everPuppy Playground (41303)€ 4.71--2016-12-01
Best everPuppy Treats & Tricks (41304)€ 4.71--2016-12-01
Best everEmma's Photo Studio (41305)€ 10.62+ € 0.01 (0%)2016-12-01
Best everMia's Beach Scooter (41306)€ 10.62+ € 0.01 (0%)2016-12-01
Best everOlivia's Creative Lab (41307)€ 10.62+ € 0.01 (0%)2016-12-01
Best everStephanie's Friendship Cakes (41308)€ 10.62+ € 0.01 (0%)2016-12-01
Best everAndrea's Musical Duet (41309)€ 10.62+ € 0.01 (0%)2016-12-01
Best everHeartlake Gift Delivery (41310)€ 17.99- € 3.25 (15%)2016-12-01
Best everHeartlake Pizzeria (41311)€ 26.99- € 2.51 (9%)2016-12-01
Best everHeartlake Sports Center (41312)€ 40.49- € 6.71 (14%)2016-12-01
Best everHeartlake Summer Pool (41313)€ 44.99- € 19.92 (31%)2016-12-01
Best everStephanie's House (41314)€ 67.49- € 9.23 (12%)2016-12-01
FLAIN (41500)€ 15.25+ € 10.26 (206%)2014-03-01
KRADER (41503)€ 9.99+ € 5.00 (100%)2014-03-01
Gox (41536)€ 6.95+ € 2.82 (68%)2015-06-01
Jinky (41537)€ 6.95+ € 2.82 (68%)2015-06-01
Kamzo (41538)€ 6.95+ € 2.82 (68%)2015-06-01
Spugg (41542)€ 6.95+ € 2.82 (68%)2015-06-01
Turg (41543)€ 6.95+ € 2.82 (68%)2015-06-01
Tungster (41544)€ 6.95+ € 2.82 (68%)2015-06-01
Busto (41555)€ 3.90- € 0.05 (1%)2016-01-31
Jamzy (41560)€ 4.49+ € 0.54 (14%)2016-01-31
4x4 Crawler Exclusive Edition (41999)€ 749.99+ € 570.00 (317%)2013-08-01

Also show unavailable sets